sensor_id;sensor_type;location;lat;lon;timestamp;P1;durP1;ratioP1;P2;durP2;ratioP2
21152;SDS011;10734;44.792;20.482;2022-12-10T00:01:30;18.55;;;6.78;;
21152;SDS011;10734;44.792;20.482;2022-12-10T00:03:58;20.20;;;6.10;;
21152;SDS011;10734;44.792;20.482;2022-12-10T00:06:26;25.15;;;6.50;;
21152;SDS011;10734;44.792;20.482;2022-12-10T00:08:55;19.10;;;6.97;;
21152;SDS011;10734;44.792;20.482;2022-12-10T00:11:23;20.33;;;5.78;;
21152;SDS011;10734;44.792;20.482;2022-12-10T00:13:50;21.23;;;5.90;;
21152;SDS011;10734;44.792;20.482;2022-12-10T00:16:25;23.05;;;6.60;;
21152;SDS011;10734;44.792;20.482;2022-12-10T00:18:54;34.28;;;8.48;;
21152;SDS011;10734;44.792;20.482;2022-12-10T00:21:22;17.90;;;6.35;;
21152;SDS011;10734;44.792;20.482;2022-12-10T00:23:52;19.73;;;5.82;;
21152;SDS011;10734;44.792;20.482;2022-12-10T00:26:20;26.02;;;6.00;;
21152;SDS011;10734;44.792;20.482;2022-12-10T00:28:49;26.83;;;5.57;;
21152;SDS011;10734;44.792;20.482;2022-12-10T00:31:20;21.20;;;5.43;;
21152;SDS011;10734;44.792;20.482;2022-12-10T00:33:48;17.73;;;6.75;;
21152;SDS011;10734;44.792;20.482;2022-12-10T00:36:17;29.60;;;5.68;;
21152;SDS011;10734;44.792;20.482;2022-12-10T00:38:46;20.00;;;5.40;;
21152;SDS011;10734;44.792;20.482;2022-12-10T00:41:14;24.05;;;5.65;;
21152;SDS011;10734;44.792;20.482;2022-12-10T00:43:42;26.88;;;6.20;;
21152;SDS011;10734;44.792;20.482;2022-12-10T00:46:09;19.77;;;5.40;;
21152;SDS011;10734;44.792;20.482;2022-12-10T00:48:37;27.05;;;5.40;;
21152;SDS011;10734;44.792;20.482;2022-12-10T00:51:05;23.75;;;6.00;;
21152;SDS011;10734;44.792;20.482;2022-12-10T00:53:35;19.63;;;5.70;;
21152;SDS011;10734;44.792;20.482;2022-12-10T00:56:03;16.48;;;5.03;;
21152;SDS011;10734;44.792;20.482;2022-12-10T00:58:32;23.20;;;5.43;;
21152;SDS011;10734;44.792;20.482;2022-12-10T01:01:07;22.50;;;5.43;;
21152;SDS011;10734;44.792;20.482;2022-12-10T01:03:37;16.00;;;5.32;;
21152;SDS011;10734;44.792;20.482;2022-12-10T01:06:08;16.42;;;5.15;;
21152;SDS011;10734;44.792;20.482;2022-12-10T01:08:40;19.75;;;5.03;;
21152;SDS011;10734;44.792;20.482;2022-12-10T01:11:08;21.00;;;4.82;;
21152;SDS011;10734;44.792;20.482;2022-12-10T01:13:36;20.02;;;4.80;;
21152;SDS011;10734;44.792;20.482;2022-12-10T01:16:04;19.50;;;6.00;;
21152;SDS011;10734;44.792;20.482;2022-12-10T01:18:33;18.35;;;5.22;;
21152;SDS011;10734;44.792;20.482;2022-12-10T01:21:01;19.98;;;4.63;;
21152;SDS011;10734;44.792;20.482;2022-12-10T01:23:33;18.30;;;4.30;;
21152;SDS011;10734;44.792;20.482;2022-12-10T01:26:04;18.08;;;4.72;;
21152;SDS011;10734;44.792;20.482;2022-12-10T01:28:33;20.48;;;4.93;;
21152;SDS011;10734;44.792;20.482;2022-12-10T01:31:05;18.10;;;4.43;;
21152;SDS011;10734;44.792;20.482;2022-12-10T01:33:41;14.98;;;4.47;;
21152;SDS011;10734;44.792;20.482;2022-12-10T01:36:18;18.60;;;4.60;;
21152;SDS011;10734;44.792;20.482;2022-12-10T01:38:48;16.13;;;3.90;;
21152;SDS011;10734;44.792;20.482;2022-12-10T01:41:16;18.50;;;4.85;;
21152;SDS011;10734;44.792;20.482;2022-12-10T01:46:18;18.85;;;4.05;;
21152;SDS011;10734;44.792;20.482;2022-12-10T01:48:46;17.15;;;3.90;;
21152;SDS011;10734;44.792;20.482;2022-12-10T01:51:13;14.43;;;3.67;;
21152;SDS011;10734;44.792;20.482;2022-12-10T01:53:41;16.73;;;3.38;;
21152;SDS011;10734;44.792;20.482;2022-12-10T01:56:09;14.68;;;3.97;;
21152;SDS011;10734;44.792;20.482;2022-12-10T01:58:37;11.07;;;3.75;;
21152;SDS011;10734;44.792;20.482;2022-12-10T02:01:07;16.50;;;3.65;;
21152;SDS011;10734;44.792;20.482;2022-12-10T02:06:33;14.20;;;4.55;;
21152;SDS011;10734;44.792;20.482;2022-12-10T02:11:35;14.18;;;3.40;;
21152;SDS011;10734;44.792;20.482;2022-12-10T02:14:08;9.25;;;2.95;;
21152;SDS011;10734;44.792;20.482;2022-12-10T02:17:02;13.07;;;3.40;;
21152;SDS011;10734;44.792;20.482;2022-12-10T02:19:44;10.85;;;3.67;;
21152;SDS011;10734;44.792;20.482;2022-12-10T02:22:12;10.98;;;2.70;;
21152;SDS011;10734;44.792;20.482;2022-12-10T02:24:41;18.63;;;3.60;;
21152;SDS011;10734;44.792;20.482;2022-12-10T02:29:45;15.00;;;3.10;;
21152;SDS011;10734;44.792;20.482;2022-12-10T02:32:18;14.18;;;3.08;;
21152;SDS011;10734;44.792;20.482;2022-12-10T02:34:53;15.57;;;3.42;;
21152;SDS011;10734;44.792;20.482;2022-12-10T02:37:30;19.08;;;3.20;;
21152;SDS011;10734;44.792;20.482;2022-12-10T02:40:05;9.38;;;2.92;;
21152;SDS011;10734;44.792;20.482;2022-12-10T02:42:37;13.38;;;3.22;;
21152;SDS011;10734;44.792;20.482;2022-12-10T02:45:07;17.25;;;2.63;;
21152;SDS011;10734;44.792;20.482;2022-12-10T02:47:34;14.55;;;3.22;;
21152;SDS011;10734;44.792;20.482;2022-12-10T02:50:02;13.27;;;3.20;;
21152;SDS011;10734;44.792;20.482;2022-12-10T02:52:30;10.05;;;2.60;;
21152;SDS011;10734;44.792;20.482;2022-12-10T02:54:57;14.50;;;3.42;;
21152;SDS011;10734;44.792;20.482;2022-12-10T02:57:37;12.80;;;3.22;;
21152;SDS011;10734;44.792;20.482;2022-12-10T03:00:19;13.70;;;3.42;;
21152;SDS011;10734;44.792;20.482;2022-12-10T03:11:13;16.88;;;3.85;;
21152;SDS011;10734;44.792;20.482;2022-12-10T03:13:48;12.55;;;3.33;;
21152;SDS011;10734;44.792;20.482;2022-12-10T03:16:21;14.05;;;3.20;;
21152;SDS011;10734;44.792;20.482;2022-12-10T03:18:51;20.38;;;3.55;;
21152;SDS011;10734;44.792;20.482;2022-12-10T03:21:21;13.05;;;4.65;;
21152;SDS011;10734;44.792;20.482;2022-12-10T03:23:50;9.77;;;2.78;;
21152;SDS011;10734;44.792;20.482;2022-12-10T03:26:17;11.77;;;3.55;;
21152;SDS011;10734;44.792;20.482;2022-12-10T03:28:47;16.00;;;2.95;;
21152;SDS011;10734;44.792;20.482;2022-12-10T03:31:17;8.30;;;2.30;;
21152;SDS011;10734;44.792;20.482;2022-12-10T03:33:46;10.30;;;2.92;;
21152;SDS011;10734;44.792;20.482;2022-12-10T03:36:14;9.02;;;2.67;;
21152;SDS011;10734;44.792;20.482;2022-12-10T03:38:43;9.32;;;2.42;;
21152;SDS011;10734;44.792;20.482;2022-12-10T03:41:10;18.83;;;3.08;;
21152;SDS011;10734;44.792;20.482;2022-12-10T03:43:49;12.27;;;3.22;;
21152;SDS011;10734;44.792;20.482;2022-12-10T03:46:16;9.57;;;2.78;;
21152;SDS011;10734;44.792;20.482;2022-12-10T03:48:43;10.02;;;2.22;;
21152;SDS011;10734;44.792;20.482;2022-12-10T03:51:10;11.35;;;2.90;;
21152;SDS011;10734;44.792;20.482;2022-12-10T03:53:37;14.40;;;3.15;;
21152;SDS011;10734;44.792;20.482;2022-12-10T03:56:03;13.82;;;2.20;;
21152;SDS011;10734;44.792;20.482;2022-12-10T03:58:30;10.80;;;2.95;;
21152;SDS011;10734;44.792;20.482;2022-12-10T04:00:57;11.48;;;2.60;;
21152;SDS011;10734;44.792;20.482;2022-12-10T04:03:23;12.25;;;2.45;;
21152;SDS011;10734;44.792;20.482;2022-12-10T04:05:50;13.63;;;2.67;;
21152;SDS011;10734;44.792;20.482;2022-12-10T04:08:17;12.55;;;2.63;;
21152;SDS011;10734;44.792;20.482;2022-12-10T04:10:43;8.65;;;2.75;;
21152;SDS011;10734;44.792;20.482;2022-12-10T04:13:10;17.75;;;3.05;;
21152;SDS011;10734;44.792;20.482;2022-12-10T04:15:56;14.88;;;3.10;;
21152;SDS011;10734;44.792;20.482;2022-12-10T04:18:41;12.73;;;2.90;;
21152;SDS011;10734;44.792;20.482;2022-12-10T04:21:08;12.85;;;2.30;;
21152;SDS011;10734;44.792;20.482;2022-12-10T04:23:53;18.60;;;3.50;;
21152;SDS011;10734;44.792;20.482;2022-12-10T04:26:38;16.05;;;3.10;;
21152;SDS011;10734;44.792;20.482;2022-12-10T04:29:20;12.05;;;2.88;;
21152;SDS011;10734;44.792;20.482;2022-12-10T04:31:54;8.18;;;2.47;;
21152;SDS011;10734;44.792;20.482;2022-12-10T04:34:21;8.07;;;2.17;;
21152;SDS011;10734;44.792;20.482;2022-12-10T04:36:48;11.85;;;2.63;;
21152;SDS011;10734;44.792;20.482;2022-12-10T04:39:15;8.20;;;2.60;;
21152;SDS011;10734;44.792;20.482;2022-12-10T04:41:43;16.33;;;2.85;;
21152;SDS011;10734;44.792;20.482;2022-12-10T04:44:12;9.77;;;2.42;;
21152;SDS011;10734;44.792;20.482;2022-12-10T04:46:39;9.00;;;1.83;;
21152;SDS011;10734;44.792;20.482;2022-12-10T04:49:05;13.88;;;2.90;;
21152;SDS011;10734;44.792;20.482;2022-12-10T04:51:32;11.15;;;2.58;;
21152;SDS011;10734;44.792;20.482;2022-12-10T04:53:59;12.75;;;2.50;;
21152;SDS011;10734;44.792;20.482;2022-12-10T04:56:26;9.70;;;2.08;;
21152;SDS011;10734;44.792;20.482;2022-12-10T04:58:56;10.80;;;3.28;;
21152;SDS011;10734;44.792;20.482;2022-12-10T05:01:24;8.85;;;2.58;;
21152;SDS011;10734;44.792;20.482;2022-12-10T05:03:51;12.82;;;2.63;;
21152;SDS011;10734;44.792;20.482;2022-12-10T05:06:18;16.60;;;3.00;;
21152;SDS011;10734;44.792;20.482;2022-12-10T05:08:45;12.40;;;3.03;;
21152;SDS011;10734;44.792;20.482;2022-12-10T05:11:14;14.00;;;2.30;;
21152;SDS011;10734;44.792;20.482;2022-12-10T05:13:42;11.27;;;2.40;;
21152;SDS011;10734;44.792;20.482;2022-12-10T05:16:10;5.95;;;2.10;;
21152;SDS011;10734;44.792;20.482;2022-12-10T05:18:38;10.52;;;2.35;;
21152;SDS011;10734;44.792;20.482;2022-12-10T05:21:06;13.65;;;2.72;;
21152;SDS011;10734;44.792;20.482;2022-12-10T05:23:37;16.35;;;2.85;;
21152;SDS011;10734;44.792;20.482;2022-12-10T05:28:39;18.88;;;2.85;;
21152;SDS011;10734;44.792;20.482;2022-12-10T05:31:11;16.85;;;2.33;;
21152;SDS011;10734;44.792;20.482;2022-12-10T05:33:40;11.95;;;2.38;;
21152;SDS011;10734;44.792;20.482;2022-12-10T05:36:09;11.30;;;2.13;;
21152;SDS011;10734;44.792;20.482;2022-12-10T05:38:37;10.05;;;2.88;;
21152;SDS011;10734;44.792;20.482;2022-12-10T05:41:05;8.43;;;2.15;;
21152;SDS011;10734;44.792;20.482;2022-12-10T05:43:34;17.35;;;2.92;;
21152;SDS011;10734;44.792;20.482;2022-12-10T05:46:02;10.93;;;2.55;;
21152;SDS011;10734;44.792;20.482;2022-12-10T05:48:30;11.05;;;2.55;;
21152;SDS011;10734;44.792;20.482;2022-12-10T05:50:58;13.15;;;2.40;;
21152;SDS011;10734;44.792;20.482;2022-12-10T05:53:29;11.73;;;3.03;;
21152;SDS011;10734;44.792;20.482;2022-12-10T05:55:59;13.52;;;3.03;;
21152;SDS011;10734;44.792;20.482;2022-12-10T05:58:30;10.23;;;2.65;;
21152;SDS011;10734;44.792;20.482;2022-12-10T06:00:57;10.38;;;3.25;;
21152;SDS011;10734;44.792;20.482;2022-12-10T06:03:26;16.08;;;3.03;;
21152;SDS011;10734;44.792;20.482;2022-12-10T06:05:58;9.95;;;3.38;;
21152;SDS011;10734;44.792;20.482;2022-12-10T06:08:25;12.88;;;3.30;;
21152;SDS011;10734;44.792;20.482;2022-12-10T06:10:52;13.02;;;3.10;;
21152;SDS011;10734;44.792;20.482;2022-12-10T06:13:20;10.60;;;2.63;;
21152;SDS011;10734;44.792;20.482;2022-12-10T06:15:46;16.55;;;2.70;;
21152;SDS011;10734;44.792;20.482;2022-12-10T06:18:13;10.77;;;2.70;;
21152;SDS011;10734;44.792;20.482;2022-12-10T06:20:40;10.93;;;3.38;;
21152;SDS011;10734;44.792;20.482;2022-12-10T06:23:11;21.08;;;3.45;;
21152;SDS011;10734;44.792;20.482;2022-12-10T06:25:38;11.75;;;3.35;;
21152;SDS011;10734;44.792;20.482;2022-12-10T06:28:05;12.63;;;3.08;;
21152;SDS011;10734;44.792;20.482;2022-12-10T06:30:32;11.80;;;3.22;;
21152;SDS011;10734;44.792;20.482;2022-12-10T06:32:59;15.70;;;3.10;;
21152;SDS011;10734;44.792;20.482;2022-12-10T06:35:26;14.70;;;3.20;;
21152;SDS011;10734;44.792;20.482;2022-12-10T06:37:53;14.40;;;2.65;;
21152;SDS011;10734;44.792;20.482;2022-12-10T06:40:20;16.25;;;2.95;;
21152;SDS011;10734;44.792;20.482;2022-12-10T06:42:46;15.50;;;3.40;;
21152;SDS011;10734;44.792;20.482;2022-12-10T06:45:13;13.38;;;2.80;;
21152;SDS011;10734;44.792;20.482;2022-12-10T06:47:40;13.95;;;3.08;;
21152;SDS011;10734;44.792;20.482;2022-12-10T06:50:08;11.70;;;2.75;;
21152;SDS011;10734;44.792;20.482;2022-12-10T06:52:35;14.70;;;3.40;;
21152;SDS011;10734;44.792;20.482;2022-12-10T06:55:02;8.98;;;2.88;;
21152;SDS011;10734;44.792;20.482;2022-12-10T06:57:29;19.45;;;3.17;;
21152;SDS011;10734;44.792;20.482;2022-12-10T06:59:56;9.35;;;3.08;;
21152;SDS011;10734;44.792;20.482;2022-12-10T07:02:22;11.35;;;3.13;;
21152;SDS011;10734;44.792;20.482;2022-12-10T07:04:49;14.27;;;3.15;;
21152;SDS011;10734;44.792;20.482;2022-12-10T07:07:16;9.25;;;2.75;;
21152;SDS011;10734;44.792;20.482;2022-12-10T07:09:42;13.40;;;3.28;;
21152;SDS011;10734;44.792;20.482;2022-12-10T07:12:09;16.38;;;3.03;;
21152;SDS011;10734;44.792;20.482;2022-12-10T07:14:36;16.08;;;3.38;;
21152;SDS011;10734;44.792;20.482;2022-12-10T07:17:02;8.10;;;3.30;;
21152;SDS011;10734;44.792;20.482;2022-12-10T07:19:29;10.98;;;3.47;;
21152;SDS011;10734;44.792;20.482;2022-12-10T07:21:56;10.07;;;3.65;;
21152;SDS011;10734;44.792;20.482;2022-12-10T07:24:23;11.80;;;3.53;;
21152;SDS011;10734;44.792;20.482;2022-12-10T07:26:51;13.25;;;3.22;;
21152;SDS011;10734;44.792;20.482;2022-12-10T07:29:19;16.63;;;3.10;;
21152;SDS011;10734;44.792;20.482;2022-12-10T07:31:48;10.23;;;3.63;;
21152;SDS011;10734;44.792;20.482;2022-12-10T07:34:15;8.00;;;2.90;;
21152;SDS011;10734;44.792;20.482;2022-12-10T07:36:43;8.55;;;2.72;;
21152;SDS011;10734;44.792;20.482;2022-12-10T07:39:10;8.45;;;3.05;;
21152;SDS011;10734;44.792;20.482;2022-12-10T07:41:49;13.55;;;3.08;;
21152;SDS011;10734;44.792;20.482;2022-12-10T07:44:19;9.07;;;3.35;;
21152;SDS011;10734;44.792;20.482;2022-12-10T07:46:48;7.65;;;3.53;;
21152;SDS011;10734;44.792;20.482;2022-12-10T07:49:16;10.95;;;3.63;;
21152;SDS011;10734;44.792;20.482;2022-12-10T07:51:44;14.95;;;3.92;;
21152;SDS011;10734;44.792;20.482;2022-12-10T07:54:15;11.98;;;3.90;;
21152;SDS011;10734;44.792;20.482;2022-12-10T07:56:43;12.18;;;3.67;;
21152;SDS011;10734;44.792;20.482;2022-12-10T07:59:10;16.52;;;4.25;;
21152;SDS011;10734;44.792;20.482;2022-12-10T08:01:37;10.90;;;3.90;;
21152;SDS011;10734;44.792;20.482;2022-12-10T08:04:03;10.80;;;4.10;;
21152;SDS011;10734;44.792;20.482;2022-12-10T08:06:30;15.40;;;3.63;;
21152;SDS011;10734;44.792;20.482;2022-12-10T08:08:58;10.50;;;3.78;;
21152;SDS011;10734;44.792;20.482;2022-12-10T08:11:25;10.07;;;4.18;;
21152;SDS011;10734;44.792;20.482;2022-12-10T08:13:53;15.70;;;3.83;;
21152;SDS011;10734;44.792;20.482;2022-12-10T08:16:23;9.65;;;3.95;;
21152;SDS011;10734;44.792;20.482;2022-12-10T08:18:52;12.65;;;4.63;;
21152;SDS011;10734;44.792;20.482;2022-12-10T08:21:21;13.38;;;5.43;;
21152;SDS011;10734;44.792;20.482;2022-12-10T08:23:50;16.05;;;5.82;;
21152;SDS011;10734;44.792;20.482;2022-12-10T08:26:21;12.77;;;5.95;;
21152;SDS011;10734;44.792;20.482;2022-12-10T08:28:51;15.90;;;7.20;;
21152;SDS011;10734;44.792;20.482;2022-12-10T08:31:18;19.92;;;6.05;;
21152;SDS011;10734;44.792;20.482;2022-12-10T08:33:47;11.27;;;5.78;;
21152;SDS011;10734;44.792;20.482;2022-12-10T08:36:15;16.73;;;6.70;;
21152;SDS011;10734;44.792;20.482;2022-12-10T08:38:43;16.45;;;7.05;;
21152;SDS011;10734;44.792;20.482;2022-12-10T08:41:11;16.73;;;5.53;;
21152;SDS011;10734;44.792;20.482;2022-12-10T08:43:40;12.98;;;5.03;;
21152;SDS011;10734;44.792;20.482;2022-12-10T08:46:07;18.90;;;4.85;;
21152;SDS011;10734;44.792;20.482;2022-12-10T08:48:35;14.68;;;4.88;;
21152;SDS011;10734;44.792;20.482;2022-12-10T08:51:04;13.68;;;4.32;;
21152;SDS011;10734;44.792;20.482;2022-12-10T08:53:32;16.77;;;4.93;;
21152;SDS011;10734;44.792;20.482;2022-12-10T08:56:01;12.13;;;4.38;;
21152;SDS011;10734;44.792;20.482;2022-12-10T08:58:27;14.77;;;5.57;;
21152;SDS011;10734;44.792;20.482;2022-12-10T09:00:55;18.23;;;5.13;;
21152;SDS011;10734;44.792;20.482;2022-12-10T09:03:22;10.90;;;4.57;;
21152;SDS011;10734;44.792;20.482;2022-12-10T09:05:50;10.73;;;3.95;;
21152;SDS011;10734;44.792;20.482;2022-12-10T09:08:17;11.80;;;3.90;;
21152;SDS011;10734;44.792;20.482;2022-12-10T09:10:44;13.45;;;4.95;;
21152;SDS011;10734;44.792;20.482;2022-12-10T09:13:11;15.68;;;5.53;;
21152;SDS011;10734;44.792;20.482;2022-12-10T09:15:39;13.75;;;4.88;;
21152;SDS011;10734;44.792;20.482;2022-12-10T09:18:05;21.33;;;6.03;;
21152;SDS011;10734;44.792;20.482;2022-12-10T09:20:33;18.58;;;5.97;;
21152;SDS011;10734;44.792;20.482;2022-12-10T09:22:59;24.73;;;5.90;;
21152;SDS011;10734;44.792;20.482;2022-12-10T09:25:27;15.02;;;6.72;;
21152;SDS011;10734;44.792;20.482;2022-12-10T09:27:54;21.50;;;7.45;;
21152;SDS011;10734;44.792;20.482;2022-12-10T09:30:22;17.10;;;7.40;;
21152;SDS011;10734;44.792;20.482;2022-12-10T09:32:48;20.50;;;6.88;;
21152;SDS011;10734;44.792;20.482;2022-12-10T09:35:15;21.17;;;8.63;;
21152;SDS011;10734;44.792;20.482;2022-12-10T09:37:42;25.58;;;9.27;;
21152;SDS011;10734;44.792;20.482;2022-12-10T09:40:14;19.63;;;8.02;;
21152;SDS011;10734;44.792;20.482;2022-12-10T09:45:42;23.30;;;7.35;;
21152;SDS011;10734;44.792;20.482;2022-12-10T09:53:27;24.77;;;7.15;;
21152;SDS011;10734;44.792;20.482;2022-12-10T09:55:56;20.77;;;4.55;;
21152;SDS011;10734;44.792;20.482;2022-12-10T09:58:25;19.58;;;4.97;;
21152;SDS011;10734;44.792;20.482;2022-12-10T10:03:23;13.57;;;5.57;;
21152;SDS011;10734;44.792;20.482;2022-12-10T10:05:51;15.50;;;4.93;;
21152;SDS011;10734;44.792;20.482;2022-12-10T10:11:20;19.60;;;6.20;;
21152;SDS011;10734;44.792;20.482;2022-12-10T10:16:47;14.70;;;6.43;;
21152;SDS011;10734;44.792;20.482;2022-12-10T10:19:28;18.60;;;8.43;;
21152;SDS011;10734;44.792;20.482;2022-12-10T10:22:01;15.25;;;7.03;;
21152;SDS011;10734;44.792;20.482;2022-12-10T10:24:33;15.38;;;7.32;;
21152;SDS011;10734;44.792;20.482;2022-12-10T10:27:15;18.90;;;8.15;;
21152;SDS011;10734;44.792;20.482;2022-12-10T10:29:47;13.10;;;5.85;;
21152;SDS011;10734;44.792;20.482;2022-12-10T10:32:27;15.57;;;6.70;;
21152;SDS011;10734;44.792;20.482;2022-12-10T10:37:48;24.20;;;7.93;;
21152;SDS011;10734;44.792;20.482;2022-12-10T10:40:23;29.45;;;8.75;;
21152;SDS011;10734;44.792;20.482;2022-12-10T10:42:54;25.65;;;8.93;;
21152;SDS011;10734;44.792;20.482;2022-12-10T10:48:14;19.42;;;8.38;;
21152;SDS011;10734;44.792;20.482;2022-12-10T10:50:47;23.05;;;9.70;;
21152;SDS011;10734;44.792;20.482;2022-12-10T10:53:49;18.23;;;7.68;;
21152;SDS011;10734;44.792;20.482;2022-12-10T10:56:26;16.33;;;9.10;;
21152;SDS011;10734;44.792;20.482;2022-12-10T10:59:00;24.30;;;12.65;;
21152;SDS011;10734;44.792;20.482;2022-12-10T11:04:14;18.58;;;6.57;;
21152;SDS011;10734;44.792;20.482;2022-12-10T11:06:43;21.60;;;4.63;;
21152;SDS011;10734;44.792;20.482;2022-12-10T11:09:18;11.73;;;5.38;;
21152;SDS011;10734;44.792;20.482;2022-12-10T11:11:52;12.25;;;4.45;;
21152;SDS011;10734;44.792;20.482;2022-12-10T11:14:26;19.42;;;4.88;;
21152;SDS011;10734;44.792;20.482;2022-12-10T11:17:12;13.32;;;5.15;;
21152;SDS011;10734;44.792;20.482;2022-12-10T11:19:54;13.73;;;5.18;;
21152;SDS011;10734;44.792;20.482;2022-12-10T11:22:35;14.13;;;4.28;;
21152;SDS011;10734;44.792;20.482;2022-12-10T11:25:02;10.63;;;3.88;;
21152;SDS011;10734;44.792;20.482;2022-12-10T11:30:09;15.85;;;4.65;;
21152;SDS011;10734;44.792;20.482;2022-12-10T11:35:43;12.95;;;5.00;;
21152;SDS011;10734;44.792;20.482;2022-12-10T11:40:43;14.25;;;4.57;;
21152;SDS011;10734;44.792;20.482;2022-12-10T11:57:40;18.35;;;4.80;;
21152;SDS011;10734;44.792;20.482;2022-12-10T12:00:20;17.35;;;4.80;;
21152;SDS011;10734;44.792;20.482;2022-12-10T12:08:45;18.95;;;6.00;;
21152;SDS011;10734;44.792;20.482;2022-12-10T12:14:12;17.33;;;5.38;;
21152;SDS011;10734;44.792;20.482;2022-12-10T12:22:42;19.08;;;5.25;;
21152;SDS011;10734;44.792;20.482;2022-12-10T12:31:08;12.77;;;5.88;;
21152;SDS011;10734;44.792;20.482;2022-12-10T12:36:24;18.63;;;5.38;;
21152;SDS011;10734;44.792;20.482;2022-12-10T12:50:00;19.15;;;5.05;;
21152;SDS011;10734;44.792;20.482;2022-12-10T12:52:46;12.50;;;4.85;;
21152;SDS011;10734;44.792;20.482;2022-12-10T12:55:26;16.35;;;4.95;;
21152;SDS011;10734;44.792;20.482;2022-12-10T13:00:59;17.38;;;5.50;;
21152;SDS011;10734;44.792;20.482;2022-12-10T13:03:41;14.88;;;5.28;;
21152;SDS011;10734;44.792;20.482;2022-12-10T13:06:13;16.67;;;5.03;;
21152;SDS011;10734;44.792;20.482;2022-12-10T13:08:46;19.60;;;5.10;;
21152;SDS011;10734;44.792;20.482;2022-12-10T13:11:30;14.95;;;4.90;;
21152;SDS011;10734;44.792;20.482;2022-12-10T13:24:18;16.08;;;4.60;;
21152;SDS011;10734;44.792;20.482;2022-12-10T13:29:58;20.35;;;4.75;;
21152;SDS011;10734;44.792;20.482;2022-12-10T13:37:53;10.73;;;4.40;;
21152;SDS011;10734;44.792;20.482;2022-12-10T13:40:43;13.40;;;4.40;;
21152;SDS011;10734;44.792;20.482;2022-12-10T13:49:18;19.00;;;4.72;;
21152;SDS011;10734;44.792;20.482;2022-12-10T13:51:59;17.25;;;4.55;;
21152;SDS011;10734;44.792;20.482;2022-12-10T14:02:52;25.83;;;11.25;;
21152;SDS011;10734;44.792;20.482;2022-12-10T14:05:37;28.17;;;11.13;;
21152;SDS011;10734;44.792;20.482;2022-12-10T14:08:27;45.50;;;17.85;;
21152;SDS011;10734;44.792;20.482;2022-12-10T14:10:56;27.88;;;9.63;;
21152;SDS011;10734;44.792;20.482;2022-12-10T14:13:32;24.58;;;8.60;;
21152;SDS011;10734;44.792;20.482;2022-12-10T14:16:05;16.92;;;7.93;;
21152;SDS011;10734;44.792;20.482;2022-12-10T14:18:37;23.70;;;8.27;;
21152;SDS011;10734;44.792;20.482;2022-12-10T14:21:08;24.67;;;8.40;;
21152;SDS011;10734;44.792;20.482;2022-12-10T14:23:44;28.83;;;8.60;;
21152;SDS011;10734;44.792;20.482;2022-12-10T14:26:19;26.05;;;10.38;;
21152;SDS011;10734;44.792;20.482;2022-12-10T14:31:27;27.17;;;8.43;;
21152;SDS011;10734;44.792;20.482;2022-12-10T14:34:01;40.20;;;14.43;;
21152;SDS011;10734;44.792;20.482;2022-12-10T14:36:32;24.67;;;7.93;;
21152;SDS011;10734;44.792;20.482;2022-12-10T14:39:04;28.50;;;7.75;;
21152;SDS011;10734;44.792;20.482;2022-12-10T14:41:42;25.58;;;6.95;;
21152;SDS011;10734;44.792;20.482;2022-12-10T14:44:14;25.77;;;7.35;;
21152;SDS011;10734;44.792;20.482;2022-12-10T14:46:43;28.98;;;7.82;;
21152;SDS011;10734;44.792;20.482;2022-12-10T14:49:19;21.52;;;7.28;;
21152;SDS011;10734;44.792;20.482;2022-12-10T14:51:49;22.90;;;9.38;;
21152;SDS011;10734;44.792;20.482;2022-12-10T14:54:30;35.30;;;11.90;;
21152;SDS011;10734;44.792;20.482;2022-12-10T14:57:01;23.95;;;8.50;;
21152;SDS011;10734;44.792;20.482;2022-12-10T14:59:36;26.13;;;9.77;;
21152;SDS011;10734;44.792;20.482;2022-12-10T15:02:15;27.98;;;8.30;;
21152;SDS011;10734;44.792;20.482;2022-12-10T15:04:56;27.25;;;6.97;;
21152;SDS011;10734;44.792;20.482;2022-12-10T15:07:24;25.02;;;7.72;;
21152;SDS011;10734;44.792;20.482;2022-12-10T15:09:57;28.63;;;6.68;;
21152;SDS011;10734;44.792;20.482;2022-12-10T15:12:29;26.05;;;7.15;;
21152;SDS011;10734;44.792;20.482;2022-12-10T15:15:12;24.55;;;6.90;;
21152;SDS011;10734;44.792;20.482;2022-12-10T15:17:45;19.05;;;6.93;;
21152;SDS011;10734;44.792;20.482;2022-12-10T15:23:19;25.45;;;7.10;;
21152;SDS011;10734;44.792;20.482;2022-12-10T15:28:31;30.77;;;6.13;;
21152;SDS011;10734;44.792;20.482;2022-12-10T15:34:08;30.00;;;10.50;;
21152;SDS011;10734;44.792;20.482;2022-12-10T15:36:38;21.83;;;9.10;;
21152;SDS011;10734;44.792;20.482;2022-12-10T15:39:27;32.50;;;11.73;;
21152;SDS011;10734;44.792;20.482;2022-12-10T15:41:57;27.23;;;10.98;;
21152;SDS011;10734;44.792;20.482;2022-12-10T15:46:59;27.88;;;9.50;;
21152;SDS011;10734;44.792;20.482;2022-12-10T15:49:27;27.67;;;6.57;;
21152;SDS011;10734;44.792;20.482;2022-12-10T15:51:55;31.83;;;7.57;;
21152;SDS011;10734;44.792;20.482;2022-12-10T15:56:59;26.05;;;7.05;;
21152;SDS011;10734;44.792;20.482;2022-12-10T15:59:31;23.48;;;7.05;;
21152;SDS011;10734;44.792;20.482;2022-12-10T16:01:58;28.60;;;9.40;;
21152;SDS011;10734;44.792;20.482;2022-12-10T16:04:26;27.50;;;9.13;;
21152;SDS011;10734;44.792;20.482;2022-12-10T16:06:53;24.65;;;6.65;;
21152;SDS011;10734;44.792;20.482;2022-12-10T16:09:20;30.67;;;7.80;;
21152;SDS011;10734;44.792;20.482;2022-12-10T16:11:47;26.23;;;7.07;;
21152;SDS011;10734;44.792;20.482;2022-12-10T16:14:15;22.73;;;6.95;;
21152;SDS011;10734;44.792;20.482;2022-12-10T16:16:42;27.55;;;7.60;;
21152;SDS011;10734;44.792;20.482;2022-12-10T16:19:12;28.77;;;7.90;;
21152;SDS011;10734;44.792;20.482;2022-12-10T16:21:39;22.38;;;8.48;;
21152;SDS011;10734;44.792;20.482;2022-12-10T16:24:08;23.50;;;8.02;;
21152;SDS011;10734;44.792;20.482;2022-12-10T16:26:34;20.40;;;7.03;;
21152;SDS011;10734;44.792;20.482;2022-12-10T16:29:02;37.45;;;7.78;;
21152;SDS011;10734;44.792;20.482;2022-12-10T16:31:29;21.00;;;6.20;;
21152;SDS011;10734;44.792;20.482;2022-12-10T16:33:57;21.88;;;6.78;;
21152;SDS011;10734;44.792;20.482;2022-12-10T16:36:23;21.55;;;6.40;;
21152;SDS011;10734;44.792;20.482;2022-12-10T16:38:51;33.65;;;7.22;;
21152;SDS011;10734;44.792;20.482;2022-12-10T16:41:21;23.17;;;7.68;;
21152;SDS011;10734;44.792;20.482;2022-12-10T16:43:50;26.67;;;6.63;;
21152;SDS011;10734;44.792;20.482;2022-12-10T16:46:17;19.40;;;6.63;;
21152;SDS011;10734;44.792;20.482;2022-12-10T16:48:43;22.08;;;6.05;;
21152;SDS011;10734;44.792;20.482;2022-12-10T16:51:32;23.40;;;6.90;;
21152;SDS011;10734;44.792;20.482;2022-12-10T16:53:59;23.88;;;6.93;;
21152;SDS011;10734;44.792;20.482;2022-12-10T16:56:26;22.40;;;6.78;;
21152;SDS011;10734;44.792;20.482;2022-12-10T16:58:54;28.50;;;7.53;;
21152;SDS011;10734;44.792;20.482;2022-12-10T17:01:26;28.20;;;6.75;;
21152;SDS011;10734;44.792;20.482;2022-12-10T17:03:54;31.55;;;6.75;;
21152;SDS011;10734;44.792;20.482;2022-12-10T17:06:21;25.33;;;7.03;;
21152;SDS011;10734;44.792;20.482;2022-12-10T17:08:48;19.83;;;6.15;;
21152;SDS011;10734;44.792;20.482;2022-12-10T17:11:18;16.42;;;6.25;;
21152;SDS011;10734;44.792;20.482;2022-12-10T17:14:09;26.13;;;7.05;;
21152;SDS011;10734;44.792;20.482;2022-12-10T17:16:52;24.10;;;6.05;;